Time;durP1;ratioP1;P1;durP2;ratioP2;P2;SDS_P1;SDS_P2;PMS_P1;PMS_P2;Temp;Humidity;BMP_temperature;BMP_pressure;BME280_temperature;BME280_humidity;BME280_pressure;Samples;Min_cycle;Max_cycle;Signal;HPM_P1;HPM_P2
2023/04/08 00:01:25;;;;;;;42.20;12.10;;;2.10;99.90;;;;;;5037264;28;20205;-84
2023/04/08 00:03:51;;;;;;;38.20;14.47;;;;;;;;;;5021361;28;20275;-84
2023/04/08 00:06:16;;;;;;;30.30;12.73;;;2.10;99.90;;;;;;5054436;28;20198;-84
2023/04/08 00:08:42;;;;;;;35.37;12.80;;;2.10;99.90;;;;;;5037557;28;20182;-84
2023/04/08 00:11:08;;;;;;;39.33;15.00;;;;;;;;;;5053883;28;20189;-85
2023/04/08 00:13:34;;;;;;;45.07;17.50;;;2.00;99.90;;;;;;5053848;28;20237;-85
2023/04/08 00:16:00;;;;;;;68.57;22.10;;;2.00;99.90;;;;;;5037383;28;20214;-85
2023/04/08 00:18:26;;;;;;;98.03;27.60;;;2.00;99.90;;;;;;5054215;28;20183;-85
2023/04/08 00:20:51;;;;;;;77.40;28.83;;;2.00;99.90;;;;;;5054909;28;20596;-85
2023/04/08 00:23:18;;;;;;;69.00;24.43;;;2.00;99.90;;;;;;5053925;28;20187;-85
2023/04/08 00:25:44;;;;;;;32.00;16.57;;;1.90;99.90;;;;;;5020061;28;20288;-84
2023/04/08 00:28:10;;;;;;;27.83;11.73;;;1.90;99.90;;;;;;5053028;28;20324;-84
2023/04/08 00:30:35;;;;;;;30.47;9.70;;;1.80;99.90;;;;;;5052797;28;20624;-85
2023/04/08 00:33:01;;;;;;;21.47;9.10;;;1.80;99.90;;;;;;5053442;28;20199;-84
2023/04/08 00:35:27;;;;;;;26.13;8.77;;;1.80;99.90;;;;;;5053531;28;20609;-84
2023/04/08 00:37:53;;;;;;;20.07;7.43;;;1.80;99.90;;;;;;5053327;28;20194;-84
2023/04/08 00:40:18;;;;;;;21.13;9.30;;;1.80;99.90;;;;;;5037214;28;20656;-84
2023/04/08 00:42:44;;;;;;;20.63;8.13;;;3.90;99.90;;;;;;5036721;28;20202;-84
2023/04/08 00:45:10;;;;;;;17.20;7.43;;;3.30;99.90;;;;;;5020438;28;20184;-83
2023/04/08 00:47:36;;;;;;;26.00;7.27;;;1.80;99.90;;;;;;5020159;28;20193;-83
2023/04/08 00:50:03;;;;;;;10.87;6.33;;;1.80;99.90;;;;;;5052907;28;20593;-83
2023/04/08 00:52:30;;;;;;;16.27;8.77;;;1.80;99.90;;;;;;5052934;28;20191;-83
2023/04/08 00:54:55;;;;;;;23.63;10.73;;;1.70;99.90;;;;;;5053102;28;20215;-83
2023/04/08 00:57:21;;;;;;;19.83;9.43;;;1.70;99.90;;;;;;5053455;28;20276;-83
2023/04/08 00:59:47;;;;;;;29.53;9.87;;;2.90;99.90;;;;;;5025555;28;20180;-83
2023/04/08 01:02:21;;;;;;;17.10;9.50;;;4.00;99.90;;;;;;5020611;28;20274;-84
2023/04/08 01:05:08;;;;;;;18.17;7.80;;;1.70;99.90;;;;;;5052987;28;20281;-83
2023/04/08 01:07:35;;;;;;;12.63;6.03;;;1.70;99.90;;;;;;5054204;28;20194;-83
2023/04/08 01:10:05;;;;;;;22.93;8.17;;;3.80;99.90;;;;;;5054262;28;20215;-83
2023/04/08 01:12:35;;;;;;;14.77;8.27;;;1.70;99.90;;;;;;5054911;28;20172;-83
2023/04/08 01:15:06;;;;;;;15.73;7.90;;;1.70;99.90;;;;;;5056163;28;20273;-83
2023/04/08 01:17:34;;;;;;;12.60;7.03;;;1.70;99.90;;;;;;5039868;28;20283;-84
2023/04/08 01:20:03;;;;;;;15.80;6.20;;;1.60;99.90;;;;;;5056055;28;20266;-83
2023/04/08 01:22:56;;;;;;;14.90;8.27;;;1.70;99.90;;;;;;5056284;28;20699;-83
2023/04/08 01:25:33;;;;;;;19.17;7.77;;;1.60;99.90;;;;;;5056811;28;20637;-83
2023/04/08 01:28:11;;;;;;;19.30;8.30;;;1.60;99.90;;;;;;5091734;28;20314;-83
2023/04/08 01:30:39;;;;;;;18.57;7.97;;;1.70;99.90;;;;;;5095469;28;20178;-83
2023/04/08 01:33:05;;;;;;;13.37;6.87;;;2.90;99.90;;;;;;5079242;28;20189;-83
2023/04/08 01:35:31;;;;;;;14.50;6.90;;;1.50;99.90;;;;;;5079337;28;20204;-84
2023/04/08 01:37:58;;;;;;;15.23;6.83;;;2.60;99.90;;;;;;5097416;28;20506;-83
2023/04/08 01:40:24;;;;;;;15.60;6.40;;;2.10;99.90;;;;;;5079656;28;20175;-83
2023/04/08 01:42:53;;;;;;;15.00;6.57;;;1.40;99.90;;;;;;5097780;28;20306;-84
2023/04/08 01:45:19;;;;;;;14.50;6.40;;;1.80;99.90;;;;;;5079456;28;20549;-83
2023/04/08 01:47:47;;;;;;;18.00;6.73;;;1.40;99.90;;;;;;5079110;28;20248;-86
2023/04/08 01:50:13;;;;;;;16.93;6.83;;;1.40;99.90;;;;;;5063247;28;20183;-84
2023/04/08 01:52:40;;;;;;;16.90;7.80;;;3.90;99.90;;;;;;5045984;28;20209;-84
2023/04/08 01:55:06;;;;;;;11.80;5.50;;;1.30;99.90;;;;;;5062595;28;20214;-84
2023/04/08 01:57:35;;;;;;;14.57;8.60;;;1.40;99.90;;;;;;5062709;28;20645;-84
2023/04/08 02:00:08;;;;;;;23.10;7.77;;;1.30;99.90;;;;;;5097023;28;20214;-84
2023/04/08 02:02:35;;;;;;;12.93;5.97;;;1.30;99.90;;;;;;5079493;28;20176;-84
2023/04/08 02:05:01;;;;;;;15.07;7.23;;;1.30;99.90;;;;;;5097235;28;20254;-84
2023/04/08 02:07:27;;;;;;;20.47;7.80;;;1.30;99.90;;;;;;5061999;28;20686;-83
2023/04/08 02:09:53;;;;;;;17.07;7.00;;;1.30;99.90;;;;;;5045866;28;20178;-84
2023/04/08 02:12:18;;;;;;;10.97;5.70;;;1.20;99.90;;;;;;5062108;28;20210;-83
2023/04/08 02:14:45;;;;;;;10.50;6.67;;;;;;;;;;5045320;28;20176;-84
2023/04/08 02:17:32;;;;;;;9.57;6.43;;;1.20;99.90;;;;;;5079532;28;20189;-83
2023/04/08 02:20:06;;;;;;;15.20;7.43;;;1.20;99.90;;;;;;5078380;28;20178;-83
2023/04/08 02:22:38;;;;;;;15.23;6.70;;;1.20;99.90;;;;;;5078157;28;20183;-83
2023/04/08 02:25:10;;;;;;;14.30;7.57;;;1.10;99.90;;;;;;5078160;28;20751;-82
2023/04/08 02:27:38;;;;;;;15.37;6.73;;;1.10;99.90;;;;;;5078803;28;20561;-83
2023/04/08 02:30:05;;;;;;;15.97;6.93;;;1.10;99.90;;;;;;5097079;28;20253;-83
2023/04/08 02:32:33;;;;;;;16.40;6.10;;;1.10;99.90;;;;;;5045642;28;20217;-83
2023/04/08 02:35:00;;;;;;;10.63;6.17;;;1.10;99.90;;;;;;5065488;28;20214;-84
2023/04/08 02:37:32;;;;;;;12.50;7.20;;;2.50;99.90;;;;;;5066525;28;20186;-83
2023/04/08 02:39:58;;;;;;;10.97;6.13;;;1.10;99.90;;;;;;5082803;28;20213;-83
2023/04/08 02:42:23;;;;;;;17.67;6.87;;;1.50;99.90;;;;;;5049982;28;20181;-82
2023/04/08 02:44:50;;;;;;;10.23;5.67;;;1.20;99.90;;;;;;5099249;28;20222;-83
2023/04/08 02:47:15;;;;;;;8.00;5.07;;;1.00;99.90;;;;;;5120209;27;20172;-83
2023/04/08 02:49:41;;;;;;;17.43;6.90;;;1.00;99.90;;;;;;5069763;28;20162;-84
2023/04/08 02:52:07;;;;;;;13.40;6.70;;;-0.80;99.90;;;;;;5069411;28;20159;-84
2023/04/08 02:54:32;;;;;;;10.23;6.03;;;1.00;99.90;;;;;;5092203;28;20242;-83
2023/04/08 02:56:58;;;;;;;17.20;6.50;;;1.00;99.90;;;;;;5057278;28;20797;-83
2023/04/08 02:59:24;;;;;;;6.83;4.50;;;1.00;99.90;;;;;;5081498;28;20185;-83
2023/04/08 03:01:50;;;;;;;11.27;6.53;;;1.70;99.90;;;;;;5085675;28;20163;-83
2023/04/08 03:04:16;;;;;;;8.67;5.23;;;2.70;99.90;;;;;;5102489;28;20229;-83
2023/04/08 03:06:41;;;;;;;15.80;7.93;;;1.00;99.90;;;;;;5097034;28;20627;-83
2023/04/08 03:09:08;;;;;;;12.70;6.37;;;1.10;99.90;;;;;;5083597;28;20534;-82
2023/04/08 03:11:34;;;;;;;11.80;6.53;;;1.00;99.90;;;;;;5066534;28;20180;-82
2023/04/08 03:14:00;;;;;;;8.63;6.70;;;1.00;99.90;;;;;;5064721;28;20218;-83
2023/04/08 03:16:26;;;;;;;11.90;7.20;;;1.00;99.90;;;;;;5082773;28;20211;-83
2023/04/08 03:18:52;;;;;;;14.53;6.70;;;1.00;99.90;;;;;;5065360;28;20232;-82
2023/04/08 03:21:18;;;;;;;14.40;6.87;;;1.00;99.90;;;;;;5047859;28;20248;-82
2023/04/08 03:23:44;;;;;;;15.77;7.07;;;1.00;99.90;;;;;;5081206;28;20187;-82
2023/04/08 03:26:10;;;;;;;7.23;4.63;;;1.10;99.90;;;;;;5080068;28;20174;-83
2023/04/08 03:28:37;;;;;;;8.57;5.67;;;0.90;99.90;;;;;;5080679;28;20209;-82
2023/04/08 03:31:06;;;;;;;11.03;5.37;;;0.90;99.90;;;;;;5062300;28;20186;-84
2023/04/08 03:33:32;;;;;;;10.33;4.67;;;1.50;99.90;;;;;;5046146;28;20186;-83
2023/04/08 03:35:58;;;;;;;8.20;4.23;;;0.90;99.90;;;;;;5061692;28;20238;-86
2023/04/08 03:38:24;;;;;;;8.90;4.97;;;;;;;;;;5061304;28;20629;-83
2023/04/08 03:40:49;;;;;;;6.73;4.83;;;0.90;99.90;;;;;;5078202;28;20205;-84
2023/04/08 03:43:15;;;;;;;5.50;3.47;;;0.90;99.90;;;;;;5060756;28;20615;-83
2023/04/08 03:45:41;;;;;;;7.20;4.47;;;0.90;99.90;;;;;;5044502;28;20247;-82
2023/04/08 03:48:07;;;;;;;11.67;4.53;;;0.90;99.90;;;;;;5060482;28;20187;-83
2023/04/08 03:50:32;;;;;;;5.40;4.53;;;3.10;99.90;;;;;;5077191;28;20247;-81
2023/04/08 03:52:58;;;;;;;9.80;4.60;;;0.90;99.90;;;;;;5043694;28;20184;-83
2023/04/08 03:55:24;;;;;;;5.80;4.40;;;0.90;99.90;;;;;;5043769;28;20213;-83
2023/04/08 03:57:49;;;;;;;10.57;4.63;;;0.90;99.90;;;;;;5044344;28;20293;-83
2023/04/08 04:00:16;;;;;;;6.87;5.27;;;1.00;99.90;;;;;;5076443;28;20531;-81
2023/04/08 04:02:42;;;;;;;4.93;3.93;;;1.00;99.90;;;;;;5095527;28;20207;-84
2023/04/08 04:05:08;;;;;;;10.67;3.50;;;1.10;99.90;;;;;;5060090;28;20188;-82
2023/04/08 04:07:33;;;;;;;6.83;4.63;;;1.10;99.90;;;;;;5094794;28;20189;-82
2023/04/08 04:09:59;;;;;;;14.67;5.50;;;1.20;99.90;;;;;;5060033;28;20198;-82
2023/04/08 04:12:25;;;;;;;7.53;4.60;;;;;;;;;;5042920;28;20558;-83
2023/04/08 04:14:51;;;;;;;13.10;6.23;;;;;;;;;;5094954;28;20185;-84
2023/04/08 04:17:17;;;;;;;15.80;5.33;;;;;;;;;;5076975;28;20187;-84
2023/04/08 04:19:43;;;;;;;12.13;6.57;;;;;;;;;;5060342;28;20619;-83
2023/04/08 04:22:09;;;;;;;12.67;6.07;;;;;;;;;;5076290;28;20228;-84
2023/04/08 04:24:35;;;;;;;10.33;6.23;;;1.40;99.90;;;;;;5060096;28;20186;-84
2023/04/08 04:27:01;;;;;;;15.60;7.80;;;1.50;99.90;;;;;;5043096;28;20630;-83
2023/04/08 04:29:27;;;;;;;8.13;5.37;;;;;;;;;;5059436;28;20281;-83
2023/04/08 04:31:52;;;;;;;13.40;6.00;;;1.50;99.90;;;;;;5059445;28;20235;-83
2023/04/08 04:34:18;;;;;;;9.67;5.67;;;1.60;99.90;;;;;;5059119;28;20190;-83
2023/04/08 04:36:44;;;;;;;12.67;5.60;;;;;;;;;;5059215;28;20225;-83
2023/04/08 04:39:10;;;;;;;11.63;7.63;;;1.70;99.90;;;;;;5059387;28;20186;-83
2023/04/08 04:41:39;;;;;;;11.63;6.43;;;1.70;99.90;;;;;;5043192;28;20631;-83
2023/04/08 04:44:05;;;;;;;10.20;7.00;;;1.70;99.90;;;;;;5044134;28;20197;-83
2023/04/08 04:46:31;;;;;;;8.67;5.57;;;1.80;99.90;;;;;;5092906;28;20184;-83
2023/04/08 04:48:57;;;;;;;9.53;5.23;;;3.30;99.90;;;;;;5075624;28;20238;-83
2023/04/08 04:51:22;;;;;;;13.30;5.80;;;1.90;99.90;;;;;;5042466;28;20174;-82
2023/04/08 04:53:48;;;;;;;10.63;5.00;;;1.90;99.90;;;;;;5075945;28;20199;-83
2023/04/08 04:56:15;;;;;;;9.93;4.97;;;;;;;;;;5043286;28;20728;-82
2023/04/08 04:58:41;;;;;;;14.37;5.23;;;2.00;99.90;;;;;;5094281;28;20638;-83
2023/04/08 05:01:06;;;;;;;6.80;4.50;;;2.10;99.90;;;;;;5060574;28;20175;-82
2023/04/08 05:03:32;;;;;;;8.53;4.53;;;2.20;99.90;;;;;;5097206;28;20178;-82
2023/04/08 05:05:58;;;;;;;8.57;5.17;;;3.20;99.90;;;;;;5076522;28;20223;-83
2023/04/08 05:08:23;;;;;;;11.67;5.73;;;3.30;99.90;;;;;;5043786;28;20213;-83
2023/04/08 05:10:49;;;;;;;7.77;5.17;;;2.30;99.90;;;;;;5098535;28;20211;-83
2023/04/08 05:13:16;;;;;;;6.63;4.73;;;;;;;;;;5064270;28;20263;-83
2023/04/08 05:15:42;;;;;;;7.53;5.07;;;2.50;99.90;;;;;;5063085;28;20206;-83
2023/04/08 05:18:08;;;;;;;9.77;3.90;;;;;;;;;;5077919;28;20189;-83
2023/04/08 05:20:33;;;;;;;6.53;4.40;;;2.60;99.90;;;;;;5060074;28;20238;-82
2023/04/08 05:22:59;;;;;;;7.80;4.57;;;2.70;99.90;;;;;;5075633;28;20578;-83
2023/04/08 05:25:25;;;;;;;15.17;4.70;;;2.80;99.90;;;;;;5058743;28;20215;-83
2023/04/08 05:27:51;;;;;;;8.47;5.23;;;3.10;99.90;;;;;;5025102;28;20238;-83
2023/04/08 05:30:17;;;;;;;8.87;4.87;;;3.00;99.90;;;;;;5052983;28;20267;-83
2023/04/08 05:32:43;;;;;;;8.27;4.73;;;3.10;99.90;;;;;;5035638;28;20180;-83
2023/04/08 05:35:09;;;;;;;7.27;3.83;;;3.20;99.90;;;;;;5035669;28;20217;-84
2023/04/08 05:37:35;;;;;;;8.77;4.90;;;3.90;99.90;;;;;;5052009;28;20195;-83
2023/04/08 05:40:00;;;;;;;12.30;5.50;;;3.50;99.90;;;;;;5036152;28;20199;-83
2023/04/08 05:42:26;;;;;;;9.43;5.27;;;3.70;99.90;;;;;;5051237;28;20539;-86
2023/04/08 05:44:52;;;;;;;19.63;8.00;;;3.80;99.90;;;;;;5034462;28;20250;-83
2023/04/08 05:47:18;;;;;;;13.27;7.20;;;4.00;99.90;;;;;;5051152;28;20187;-86
2023/04/08 05:49:43;;;;;;;12.10;5.27;;;4.10;99.90;;;;;;5018300;28;20216;-83
2023/04/08 05:52:09;;;;;;;12.97;7.20;;;4.20;99.90;;;;;;5034194;28;20188;-84
2023/04/08 05:54:35;;;;;;;15.23;6.73;;;4.30;99.90;;;;;;5034121;28;20187;-83
2023/04/08 05:57:00;;;;;;;9.23;4.00;;;4.40;99.90;;;;;;5018136;28;20212;-83
2023/04/08 05:59:26;;;;;;;9.97;5.77;;;4.50;99.90;;;;;;5020973;28;20180;-83
2023/04/08 06:01:53;;;;;;;11.47;4.83;;;4.60;99.90;;;;;;5033102;28;20238;-84
2023/04/08 06:04:20;;;;;;;6.47;4.30;;;;;;;;;;5033277;28;20250;-84
2023/04/08 06:06:45;;;;;;;8.10;5.73;;;4.90;99.90;;;;;;5036480;28;20645;-85
2023/04/08 06:09:11;;;;;;;11.27;4.77;;;5.10;99.90;;;;;;5028570;28;20257;-85
2023/04/08 06:11:37;;;;;;;13.03;5.00;;;;;;;;;;5021676;28;20262;-86
2023/04/08 06:14:03;;;;;;;11.43;6.27;;;;;;;;;;5034382;28;20184;-83
2023/04/08 06:16:29;;;;;;;12.77;6.47;;;;;;;;;;5034721;28;20213;-85
2023/04/08 06:18:55;;;;;;;11.00;5.40;;;;;;;;;;5047191;28;20189;-87
2023/04/08 06:21:25;;;;;;;10.87;5.60;;;6.00;99.90;;;;;;5033986;28;20656;-85
2023/04/08 06:23:51;;;;;;;10.37;6.13;;;;;;;;;;5034843;28;20630;-87
2023/04/08 06:26:17;;;;;;;15.53;6.97;;;;;;;;;;5032684;28;20577;-84
2023/04/08 06:28:43;;;;;;;12.67;6.43;;;;;;;;;;5081797;28;20700;-85
2023/04/08 06:31:11;;;;;;;13.47;7.07;;;6.40;99.90;;;;;;5055094;28;20202;-85
2023/04/08 06:33:37;;;;;;;22.17;9.03;;;;;;;;;;5041861;28;20191;-84
2023/04/08 06:36:07;;;;;;;16.37;8.20;;;6.60;99.90;;;;;;5041902;28;20215;-85
2023/04/08 06:38:33;;;;;;;13.73;8.07;;;;;;;;;;5057547;28;20650;-85
2023/04/08 06:41:05;;;;;;;15.93;8.23;;;9.00;99.90;;;;;;5075099;28;20183;-84
2023/04/08 06:43:32;;;;;;;12.77;6.77;;;;;;;;;;5057062;28;20723;-85
2023/04/08 06:45:58;;;;;;;13.00;6.80;;;6.80;99.90;;;;;;5042322;28;20191;-84
2023/04/08 06:48:29;;;;;;;15.17;6.90;;;6.80;99.90;;;;;;5058825;28;20648;-85
2023/04/08 06:50:56;;;;;;;13.90;8.03;;;7.00;99.90;;;;;;5054708;28;20236;-86
2023/04/08 06:53:23;;;;;;;15.40;6.83;;;6.90;99.90;;;;;;5038657;28;20251;-88
2023/04/08 06:55:49;;;;;;;13.13;7.50;;;;;;;;;;5054884;28;20801;-86
2023/04/08 06:58:15;;;;;;;15.87;7.87;;;7.10;99.90;;;;;;5063512;28;20183;-88
2023/04/08 07:00:41;;;;;;;11.07;6.60;;;7.20;99.90;;;;;;5064875;28;20266;-86
2023/04/08 07:03:07;;;;;;;12.97;6.57;;;;;;;;;;5059017;28;20600;-87
2023/04/08 07:05:40;;;;;;;11.43;5.63;;;7.30;99.90;;;;;;5064241;28;20191;-86
2023/04/08 07:08:07;;;;;;;15.93;6.50;;;;;;;;;;5076272;28;20175;-86
2023/04/08 07:10:34;;;;;;;15.80;6.57;;;7.60;99.90;;;;;;5083928;28;20555;-86
2023/04/08 07:13:01;;;;;;;14.17;6.37;;;7.70;99.90;;;;;;5069094;28;20277;-86
2023/04/08 07:15:27;;;;;;;16.10;6.63;;;;;;;;;;5067686;28;20221;-85
2023/04/08 07:18:03;;;;;;;18.10;7.00;;;8.00;99.90;;;;;;5075009;28;20217;-88
2023/04/08 07:20:30;;;;;;;15.53;6.83;;;;;;;;;;5047558;28;20387;-85
2023/04/08 07:22:55;;;;;;;10.20;5.53;;;10.40;99.90;;;;;;5070064;28;20182;-84
2023/04/08 07:25:21;;;;;;;12.07;6.17;;;;;;;;;;5038066;28;20206;-85
2023/04/08 07:27:47;;;;;;;8.30;4.57;;;;;;;;;;5055879;28;20304;-85
2023/04/08 07:30:13;;;;;;;10.07;5.60;;;8.50;99.90;;;;;;5065499;28;20274;-84
2023/04/08 07:32:39;;;;;;;10.27;5.83;;;8.50;99.90;;;;;;5043367;28;20206;-85
2023/04/08 07:35:06;;;;;;;20.67;6.10;;;8.50;99.90;;;;;;5040931;28;20214;-86
2023/04/08 07:37:32;;;;;;;14.77;5.87;;;8.50;99.90;;;;;;5060342;28;20654;-84
2023/04/08 07:39:57;;;;;;;12.93;6.10;;;8.50;99.90;;;;;;5026689;28;20172;-84
2023/04/08 07:42:23;;;;;;;10.50;5.33;;;8.50;99.90;;;;;;5056623;28;20175;-85
2023/04/08 07:44:49;;;;;;;9.47;5.37;;;8.50;99.90;;;;;;5055988;28;20205;-85
2023/04/08 07:47:15;;;;;;;10.00;4.73;;;8.60;99.90;;;;;;5055646;28;20183;-85
2023/04/08 07:49:41;;;;;;;11.47;4.87;;;8.60;99.90;;;;;;5063861;28;20179;-86
2023/04/08 07:52:06;;;;;;;11.17;5.53;;;8.70;99.90;;;;;;5035141;28;20183;-84
2023/04/08 07:54:35;;;;;;;11.10;5.33;;;8.80;99.90;;;;;;5068336;28;20583;-86
2023/04/08 07:57:01;;;;;;;8.30;4.60;;;8.80;99.90;;;;;;5061843;28;20252;-84
2023/04/08 07:59:27;;;;;;;12.10;5.73;;;8.80;99.90;;;;;;5059082;28;20189;-85
2023/04/08 08:01:53;;;;;;;8.10;4.27;;;8.90;99.90;;;;;;5065178;28;20186;-84
2023/04/08 08:04:19;;;;;;;11.87;4.87;;;8.90;99.90;;;;;;5085741;28;20182;-84
2023/04/08 08:06:46;;;;;;;16.03;6.50;;;9.00;99.90;;;;;;5048495;28;20202;-84
2023/04/08 08:09:12;;;;;;;9.60;5.47;;;9.10;99.90;;;;;;5068751;28;20178;-85
2023/04/08 08:11:38;;;;;;;9.70;5.13;;;7.20;99.90;;;;;;5034992;28;20225;-84
2023/04/08 08:14:04;;;;;;;12.00;5.80;;;9.40;99.90;;;;;;5065699;28;20175;-84
2023/04/08 08:16:30;;;;;;;8.80;4.93;;;9.50;99.90;;;;;;5046885;28;20209;-84
2023/04/08 08:18:57;;;;;;;11.07;6.47;;;9.60;99.90;;;;;;5050174;28;20194;-84
2023/04/08 08:21:23;;;;;;;12.23;5.85;;;9.80;99.90;;;;;;5045100;28;20198;-84
2023/04/08 08:23:50;;;;;;;11.37;5.23;;;9.80;99.90;;;;;;5063636;28;20534;-84
2023/04/08 08:26:16;;;;;;;18.17;6.80;;;9.90;99.90;;;;;;5056090;28;20183;-84
2023/04/08 08:28:42;;;;;;;9.03;5.60;;;10.00;99.90;;;;;;5058272;28;20197;-83
2023/04/08 08:31:08;;;;;;;9.40;5.35;;;10.00;99.90;;;;;;5089883;28;20262;-84
2023/04/08 08:33:34;;;;;;;9.93;5.10;;;;;;;;;;5034812;28;20620;-86
2023/04/08 08:36:00;;;;;;;8.25;5.32;;;10.10;99.90;;;;;;5063651;28;20264;-84
2023/04/08 08:38:26;;;;;;;7.67;5.07;;;10.10;99.90;;;;;;5044667;28;20251;-84
2023/04/08 08:40:56;;;;;;;9.30;5.50;;;10.10;99.90;;;;;;5059230;28;20213;-83
2023/04/08 08:43:26;;;;;;;12.48;4.95;;;10.10;99.90;;;;;;5078114;28;20287;-82
2023/04/08 08:45:52;;;;;;;8.18;4.28;;;10.00;99.90;;;;;;5084042;28;20247;-83
2023/04/08 08:48:18;;;;;;;8.95;4.85;;;10.00;99.90;;;;;;5086161;28;20193;-83
2023/04/08 08:50:44;;;;;;;9.43;4.53;;;10.20;99.90;;;;;;5080432;28;20595;-84
2023/04/08 08:53:10;;;;;;;9.85;4.80;;;10.20;99.90;;;;;;5080830;28;20179;-84
2023/04/08 08:55:38;;;;;;;9.40;4.72;;;10.20;99.90;;;;;;5078513;28;20269;-84
2023/04/08 08:58:06;;;;;;;9.60;5.00;;;10.30;99.90;;;;;;5083570;28;20193;-84
2023/04/08 09:00:35;;;;;;;7.90;4.63;;;10.30;99.90;;;;;;5095910;28;20255;-85
2023/04/08 09:03:26;;;;;;;11.57;4.75;;;10.40;99.90;;;;;;5096887;28;20171;-88
2023/04/08 09:05:51;;;;;;;9.27;4.93;;;10.50;99.90;;;;;;5092953;28;20179;-86
2023/04/08 09:08:36;;;;;;;7.72;4.65;;;10.60;99.90;;;;;;5083311;28;20197;-84
2023/04/08 09:11:15;;;;;;;8.32;5.32;;;10.60;99.90;;;;;;5057900;28;20240;-85
2023/04/08 09:13:42;;;;;;;6.78;4.35;;;10.70;99.90;;;;;;5104675;28;20261;-86
2023/04/08 09:16:10;;;;;;;8.02;4.13;;;10.80;99.90;;;;;;5095737;28;20209;-83
2023/04/08 09:18:37;;;;;;;9.88;4.78;;;10.90;99.90;;;;;;5077276;28;20283;-84
2023/04/08 09:21:04;;;;;;;5.93;3.80;;;10.90;99.90;;;;;;5076168;28;20585;-83
2023/04/08 09:23:50;;;;;;;6.38;3.88;;;10.70;99.90;;;;;;5100220;28;20182;-82
2023/04/08 09:26:21;;;;;;;7.65;4.50;;;10.90;99.90;;;;;;5065124;28;20183;-86
2023/04/08 09:29:00;;;;;;;7.65;4.63;;;11.00;99.90;;;;;;5049016;28;20202;-83
2023/04/08 09:31:30;;;;;;;8.10;4.03;;;11.20;99.90;;;;;;5065567;28;20226;-86
2023/04/08 09:33:58;;;;;;;6.05;3.90;;;11.30;99.90;;;;;;5079984;28;20707;-84
2023/04/08 09:36:27;;;;;;;7.53;4.80;;;11.50;99.90;;;;;;5068803;28;20753;-86
2023/04/08 09:38:54;;;;;;;8.50;3.95;;;11.60;99.90;;;;;;5042492;28;20651;-84
2023/04/08 09:41:22;;;;;;;9.32;4.20;;;11.80;99.90;;;;;;5076790;28;20179;-85
2023/04/08 09:43:50;;;;;;;6.63;3.70;;;11.70;99.90;;;;;;5042469;28;20182;-84
2023/04/08 09:46:23;;;;;;;7.03;3.83;;;11.70;99.90;;;;;;5058839;28;20252;-84
2023/04/08 09:49:02;;;;;;;6.03;3.97;;;11.70;99.90;;;;;;5059306;28;20179;-85
2023/04/08 09:51:34;;;;;;;10.43;4.68;;;11.70;99.90;;;;;;5059295;28;20548;-84
2023/04/08 09:54:05;;;;;;;9.32;4.60;;;11.70;99.90;;;;;;5060539;28;20190;-86
2023/04/08 09:56:40;;;;;;;7.63;4.03;;;11.90;99.90;;;;;;5079972;28;20198;-85
2023/04/08 09:59:29;;;;;;;7.78;3.78;;;12.00;99.90;;;;;;5061408;28;20179;-85
2023/04/08 10:01:57;;;;;;;8.32;4.13;;;12.20;99.90;;;;;;5059066;28;20175;-84
2023/04/08 10:04:27;;;;;;;5.95;3.85;;;12.30;99.90;;;;;;5065622;28;20183;-86
2023/04/08 10:07:03;;;;;;;5.68;4.03;;;12.30;99.90;;;;;;5059266;28;20175;-85
2023/04/08 10:09:29;;;;;;;7.22;4.90;;;12.30;99.90;;;;;;5076623;28;20187;-85
2023/04/08 10:11:55;;;;;;;5.40;3.50;;;12.20;99.90;;;;;;5076750;28;20233;-86
2023/04/08 10:14:21;;;;;;;6.50;3.88;;;12.50;99.90;;;;;;5059274;28;20183;-86
2023/04/08 10:16:47;;;;;;;9.20;4.53;;;12.70;99.90;;;;;;5077516;28;20269;-86
2023/04/08 10:19:40;;;;;;;7.15;4.07;;;12.90;99.90;;;;;;5042855;28;20589;-86
2023/04/08 10:22:28;;;;;;;6.20;4.03;;;10.10;99.90;;;;;;5047510;28;20228;-85
2023/04/08 10:25:31;;;;;;;5.05;3.35;;;13.40;99.90;;;;;;5069961;28;20179;-85
2023/04/08 10:27:58;;;;;;;8.80;3.80;;;13.50;99.90;;;;;;5050679;28;20236;-85
2023/04/08 10:30:27;;;;;;;5.57;3.92;;;12.50;99.90;;;;;;5035762;28;20169;-86
2023/04/08 10:32:58;;;;;;;6.03;3.88;;;13.40;99.90;;;;;;5035455;28;20176;-86
2023/04/08 10:35:31;;;;;;;5.25;3.53;;;13.40;99.90;;;;;;5036498;28;20185;-86
2023/04/08 10:37:58;;;;;;;6.15;3.83;;;13.50;99.90;;;;;;5036404;28;20176;-86
2023/04/08 10:40:24;;;;;;;8.75;3.60;;;13.80;99.90;;;;;;5045288;28;20190;-87
2023/04/08 10:42:59;;;;;;;5.10;3.25;;;14.00;99.60;;;;;;5054461;28;20191;-88
2023/04/08 10:45:25;;;;;;;6.82;3.50;;;13.70;98.50;;;;;;5049105;28;20173;-87
2023/04/08 10:47:53;;;;;;;7.13;3.83;;;13.50;99.90;;;;;;5045956;28;20188;-86
2023/04/08 10:50:22;;;;;;;5.75;3.25;;;12.60;98.30;;;;;;5031167;28;20223;-88
2023/04/08 10:52:50;;;;;;;6.65;3.30;;;13.40;98.80;;;;;;5046364;28;20172;-88
2023/04/08 10:55:22;;;;;;;6.15;3.25;;;13.50;99.90;;;;;;5044408;28;20176;-89
2023/04/08 10:57:49;;;;;;;6.03;3.60;;;13.70;99.10;;;;;;5044548;28;20172;-92
2023/04/08 11:00:31;;;;;;;7.22;3.70;;;13.70;96.80;;;;;;5048040;28;20659;-88
2023/04/08 11:03:00;;;;;;;6.78;3.72;;;13.40;96.60;;;;;;5050805;28;20180;-89
2023/04/08 11:05:26;;;;;;;7.03;3.30;;;13.20;99.90;;;;;;5052868;28;20169;-87
2023/04/08 11:07:51;;;;;;;6.45;3.35;;;13.30;99.90;;;;;;5039687;28;20195;-86
2023/04/08 11:10:17;;;;;;;8.10;4.28;;;13.40;99.70;;;;;;5039190;28;20228;-86
2023/04/08 11:12:43;;;;;;;6.05;4.07;;;13.40;99.60;;;;;;5018064;28;20234;-87
2023/04/08 11:15:10;;;;;;;5.55;3.13;;;13.30;98.60;;;;;;5019990;28;20177;-86
2023/04/08 11:17:38;;;;;;;6.88;3.63;;;13.10;98.30;;;;;;5003211;28;20272;-88
2023/04/08 11:20:05;;;;;;;5.40;3.08;;;13.10;99.00;;;;;;5020061;28;20180;-89
2023/04/08 11:22:33;;;;;;;4.60;3.30;;;13.00;98.90;;;;;;5039530;28;20187;-88
2023/04/08 11:24:59;;;;;;;9.02;3.50;;;13.00;99.90;;;;;;5037168;28;20177;-87
2023/04/08 11:27:25;;;;;;;6.30;3.08;;;13.10;99.90;;;;;;5036381;28;20243;-88
2023/04/08 11:29:55;;;;;;;6.70;3.35;;;13.10;99.70;;;;;;5030990;28;20275;-87
2023/04/08 11:32:22;;;;;;;5.38;3.55;;;12.80;99.90;;;;;;5033796;28;20637;-87
2023/04/08 11:34:51;;;;;;;6.10;3.28;;;12.90;99.40;;;;;;5034026;28;20177;-87
2023/04/08 11:37:16;;;;;;;6.28;3.70;;;12.90;99.10;;;;;;5034841;28;20559;-88
2023/04/08 11:39:43;;;;;;;5.30;3.33;;;12.90;99.70;;;;;;5017528;28;20184;-87
2023/04/08 11:42:09;;;;;;;5.15;3.15;;;12.90;99.60;;;;;;5017606;28;20550;-87
2023/04/08 11:44:35;;;;;;;4.57;3.20;;;12.90;98.40;;;;;;5021509;28;20176;-89
2023/04/08 11:47:03;;;;;;;7.03;3.05;;;12.80;97.60;;;;;;5020891;28;20203;-86
2023/04/08 11:49:43;;;;;;;5.95;3.35;;;12.80;99.70;;;;;;5048467;28;20188;-87
2023/04/08 11:52:09;;;;;;;5.53;3.58;;;12.80;99.90;;;;;;5037677;28;20659;-89
2023/04/08 11:54:41;;;;;;;5.88;3.47;;;12.80;99.90;;;;;;5037452;28;20184;-84
2023/04/08 11:57:11;;;;;;;5.85;3.05;;;12.90;99.90;;;;;;5033455;28;20199;-84
2023/04/08 11:59:37;;;;;;;5.32;3.47;;;12.70;99.90;;;;;;5039980;28;20215;-85
2023/04/08 12:02:03;;;;;;;5.50;3.33;;;12.80;99.90;;;;;;5041870;28;20210;-86
2023/04/08 12:04:30;;;;;;;6.35;3.67;;;;;;;;;;5038760;28;20228;-87
2023/04/08 12:06:59;;;;;;;5.45;3.20;;;12.90;99.60;;;;;;5037206;28;20183;-87
2023/04/08 12:09:25;;;;;;;5.30;3.10;;;13.40;99.90;;;;;;5018193;28;20189;-87
2023/04/08 12:11:53;;;;;;;6.55;3.45;;;;;;;;;;5034440;28;20184;-86
2023/04/08 12:14:20;;;;;;;9.80;3.45;;;13.10;98.80;;;;;;5035460;28;20176;-86
2023/04/08 12:16:46;;;;;;;5.10;3.10;;;13.10;98.00;;;;;;5033873;28;20204;-86
2023/04/08 12:19:15;;;;;;;4.88;2.90;;;13.20;97.80;;;;;;5032998;28;20188;-86
2023/04/08 12:21:40;;;;;;;3.83;2.80;;;13.50;99.90;;;;;;5038829;28;20180;-85
2023/04/08 12:24:06;;;;;;;3.47;2.42;;;;;;;;;;5039065;28;21496;-87
2023/04/08 12:27:18;;;;;;;4.43;2.67;;;13.70;94.20;;;;;;5046937;28;20317;-88
2023/04/08 12:29:45;;;;;;;4.35;2.88;;;;;;;;;;5079467;28;20705;-86
2023/04/08 12:32:11;;;;;;;6.03;2.80;;;;;;;;;;5065979;28;20194;-86
2023/04/08 12:34:40;;;;;;;4.85;3.03;;;14.20;94.50;;;;;;5067293;28;20174;-85
2023/04/08 12:37:06;;;;;;;4.35;2.67;;;;;;;;;;5065221;28;20202;-86
2023/04/08 12:39:31;;;;;;;4.80;2.63;;;14.70;93.70;;;;;;5081124;28;20236;-86
2023/04/08 12:41:58;;;;;;;3.95;2.63;;;;;;;;;;5076334;28;20183;-86
2023/04/08 12:44:32;;;;;;;4.32;2.65;;;;;;;;;;5076648;28;20190;-86
2023/04/08 12:47:00;;;;;;;2.33;2.10;;;;;;;;;;5076869;28;20174;-86
2023/04/08 12:49:26;;;;;;;6.32;3.40;;;;;;;;;;5076026;28;20547;-86
2023/04/08 12:51:55;;;;;;;5.35;2.90;;;;;;;;;;5076615;28;20202;-86
2023/04/08 12:54:21;;;;;;;6.57;3.55;;;;;;;;;;5073929;28;20227;-87
2023/04/08 12:56:47;;;;;;;5.57;3.22;;;;;;;;;;5094238;28;20202;-87
2023/04/08 12:59:14;;;;;;;6.40;3.05;;;;;;;;;;5062411;28;20631;-86
2023/04/08 13:01:40;;;;;;;20.02;7.93;;;;;;;;;;5059411;28;20583;-86
2023/04/08 13:04:06;;;;;;;6.75;3.63;;;13.00;92.80;;;;;;5091358;28;20179;-89
2023/04/08 13:06:32;;;;;;;3.65;2.67;;;;;;;;;;5083355;28;20197;-87